createdAt,value
2023-03-11T00:05:07.730Z,0.43
2023-03-11T00:11:09.836Z,0.52
2023-03-11T00:17:11.716Z,0.50
2023-03-11T00:23:15.497Z,0.47
2023-03-11T00:29:17.384Z,0.47
2023-03-11T00:35:26.648Z,0.37
2023-03-11T00:41:29.156Z,0.45
2023-03-11T00:47:31.090Z,0.49
2023-03-11T00:53:33.103Z,0.46
2023-03-11T00:59:35.749Z,0.50
2023-03-11T01:05:37.772Z,0.43
2023-03-11T01:11:39.827Z,0.46
2023-03-11T01:17:42.014Z,0.47
2023-03-11T01:23:44.593Z,0.55
2023-03-11T01:29:46.474Z,0.52
2023-03-11T01:35:49.366Z,0.52
2023-03-11T01:41:52.997Z,0.46
2023-03-11T01:47:55.384Z,0.40
2023-03-11T01:54:00.875Z,0.44
2023-03-11T02:00:09.551Z,0.45
2023-03-11T02:06:17.036Z,0.50
2023-03-11T02:12:19.509Z,0.45
2023-03-11T02:18:22.268Z,0.37
2023-03-11T02:25:02.886Z,0.44
2023-03-11T02:31:04.915Z,0.44
2023-03-11T02:37:10.650Z,0.30
2023-03-11T02:43:18.495Z,0.28
2023-03-11T02:49:22.773Z,0.28
2023-03-11T02:55:24.805Z,0.33
2023-03-11T03:01:29.883Z,0.29
2023-03-11T03:07:32.162Z,0.41
2023-03-11T03:13:34.123Z,0.51
2023-03-11T03:19:36.049Z,0.36
2023-03-11T03:25:37.993Z,0.36
2023-03-11T03:31:39.998Z,0.21
2023-03-11T03:37:41.923Z,0.27
2023-03-11T03:43:43.889Z,0.37
2023-03-11T03:49:45.950Z,0.34
2023-03-11T03:55:49.743Z,0.35
2023-03-11T04:01:51.859Z,0.36
2023-03-11T04:07:54.666Z,0.42
2023-03-11T04:13:56.553Z,0.42
2023-03-11T04:19:58.452Z,0.44
2023-03-11T04:26:01.142Z,0.43
2023-03-11T04:32:03.067Z,0.45
2023-03-11T04:38:05.021Z,0.42
2023-03-11T04:44:06.902Z,0.42
2023-03-11T04:50:09.494Z,0.43
2023-03-11T04:56:11.446Z,0.40
2023-03-11T05:02:13.632Z,0.33
2023-03-11T05:08:15.611Z,0.44
2023-03-11T05:14:17.482Z,0.38
2023-03-11T05:20:19.498Z,0.42
2023-03-11T05:26:21.366Z,0.37
2023-03-11T05:32:23.372Z,0.35
2023-03-11T05:38:25.267Z,0.35
2023-03-11T05:44:27.186Z,0.40
2023-03-11T05:50:29.117Z,0.36
2023-03-11T05:56:31.036Z,0.37
2023-03-11T06:02:33.033Z,0.27
2023-03-11T06:08:35.624Z,0.36
2023-03-11T06:14:38.663Z,0.38
2023-03-11T06:20:40.603Z,0.31
2023-03-11T06:26:43.970Z,0.41
2023-03-11T06:32:48.974Z,0.42
2023-03-11T06:38:55.109Z,0.34
2023-03-11T06:44:57.159Z,0.34
2023-03-11T06:51:00.785Z,0.28
2023-03-11T06:57:02.962Z,0.31
2023-03-11T07:03:04.854Z,0.14
2023-03-11T07:09:06.858Z,0.17
2023-03-11T07:15:10.185Z,0.23
2023-03-11T07:21:16.578Z,0.28
2023-03-11T07:27:18.603Z,0.31
2023-03-11T07:33:24.025Z,0.34
2023-03-11T07:39:25.979Z,0.40
2023-03-11T07:45:28.086Z,0.44
2023-03-11T07:51:33.746Z,0.54
2023-03-11T07:57:35.969Z,0.58
2023-03-11T08:03:39.044Z,0.62
2023-03-11T08:09:41.044Z,0.97
2023-03-11T08:15:42.992Z,1.28
2023-03-11T08:21:44.983Z,1.20
2023-03-11T08:27:46.909Z,1.22
2023-03-11T08:33:51.002Z,1.19
2023-03-11T08:39:53.067Z,1.22
2023-03-11T08:45:55.013Z,1.09
2023-03-11T08:51:57.022Z,1.28
2023-03-11T08:57:58.913Z,1.48
2023-03-11T09:04:00.869Z,1.54
2023-03-11T09:10:03.671Z,1.74
2023-03-11T09:16:06.090Z,2.23
2023-03-11T09:22:08.024Z,2.40
2023-03-11T09:28:10.133Z,2.69
2023-03-11T09:34:15.747Z,2.74
2023-03-11T09:40:23.334Z,2.70
2023-03-11T09:46:49.222Z,2.50
2023-03-11T09:52:53.878Z,2.37
2023-03-11T09:59:27.687Z,2.36
2023-03-11T10:05:30.709Z,2.49
2023-03-11T10:11:45.847Z,2.85
2023-03-11T10:18:21.050Z,2.57
2023-03-11T10:24:57.733Z,2.44
2023-03-11T10:31:27.438Z,3.25
2023-03-11T10:37:49.835Z,3.78
2023-03-11T10:44:02.382Z,3.63
2023-03-11T10:50:04.599Z,3.52
2023-03-11T10:56:06.833Z,3.66
2023-03-11T11:02:32.640Z,4.14
2023-03-11T11:08:34.715Z,5.15
2023-03-11T11:14:52.576Z,5.08
2023-03-11T11:21:13.528Z,5.37
2023-03-11T11:27:26.480Z,5.05
2023-03-11T11:33:51.709Z,5.28
2023-03-11T11:39:58.588Z,5.57
2023-03-11T11:46:13.304Z,4.84
2023-03-11T11:52:24.361Z,5.58
2023-03-11T11:58:26.273Z,8.05
2023-03-11T12:04:50.929Z,8.36
2023-03-11T12:11:12.342Z,9.53
2023-03-11T12:17:18.516Z,10.45
2023-03-11T12:23:43.830Z,8.09
2023-03-11T12:29:52.886Z,9.73
2023-03-11T12:35:57.854Z,7.87
2023-03-11T12:42:38.235Z,7.09
2023-03-11T12:49:07.791Z,7.20
2023-03-11T12:55:18.768Z,8.27
2023-03-11T13:01:50.982Z,7.32
2023-03-11T13:08:15.258Z,7.16
2023-03-11T13:14:35.934Z,7.19
2023-03-11T13:20:43.472Z,7.45
2023-03-11T13:27:00.532Z,7.94
2023-03-11T13:33:29.790Z,7.90
2023-03-11T13:39:37.960Z,8.73
2023-03-11T13:45:39.896Z,9.93
2023-03-11T13:51:46.511Z,11.59
2023-03-11T13:57:54.607Z,8.84
2023-03-11T14:03:56.626Z,7.82
2023-03-11T14:10:20.233Z,7.81
2023-03-11T14:16:43.793Z,8.25
2023-03-11T14:22:49.434Z,9.90
2023-03-11T14:28:54.933Z,7.88
2023-03-11T14:34:57.536Z,8.83
2023-03-11T14:41:06.911Z,7.48
2023-03-11T14:47:35.325Z,7.26
2023-03-11T14:53:45.941Z,6.95
2023-03-11T14:59:51.079Z,7.05
2023-03-11T15:05:58.061Z,8.23
2023-03-11T15:12:05.605Z,10.63
2023-03-11T15:18:28.773Z,11.06
2023-03-11T15:24:33.491Z,12.59
2023-03-11T15:30:35.767Z,9.47
2023-03-11T15:36:44.393Z,7.52
2023-03-11T15:42:48.183Z,8.75
2023-03-11T15:48:50.101Z,10.12
2023-03-11T15:54:55.775Z,10.94
2023-03-11T16:00:58.157Z,10.68
2023-03-11T16:07:07.875Z,9.67
2023-03-11T16:13:15.722Z,9.20
2023-03-11T16:19:17.628Z,9.99
2023-03-11T16:25:34.607Z,10.31
2023-03-11T16:31:36.582Z,10.95
2023-03-11T16:37:41.901Z,10.48
2023-03-11T16:43:44.603Z,9.62
2023-03-11T16:49:50.394Z,7.80
2023-03-11T16:55:52.883Z,6.00
2023-03-11T17:01:54.848Z,4.76
2023-03-11T17:08:01.001Z,4.18
2023-03-11T17:14:15.531Z,3.96
2023-03-11T17:20:21.400Z,3.44
2023-03-11T17:26:23.831Z,3.24
2023-03-11T17:32:25.942Z,3.02
2023-03-11T17:38:29.412Z,2.96
2023-03-11T17:44:44.608Z,2.90
2023-03-11T17:50:52.311Z,2.80
2023-03-11T17:56:55.816Z,2.62
2023-03-11T18:02:57.703Z,2.57
2023-03-11T18:09:00.026Z,2.40
2023-03-11T18:15:06.139Z,2.16
2023-03-11T18:21:14.585Z,2.17
2023-03-11T18:27:16.498Z,2.05
2023-03-11T18:33:18.396Z,1.86
2023-03-11T18:39:20.403Z,1.79
2023-03-11T18:45:22.298Z,1.71
2023-03-11T18:51:26.060Z,1.50
2023-03-11T18:57:27.982Z,1.12
2023-03-11T19:03:29.865Z,1.04
2023-03-11T19:09:31.896Z,0.75
2023-03-11T19:15:33.985Z,0.53
2023-03-11T19:21:35.944Z,0.21
2023-03-11T19:27:40.187Z,0.05
2023-03-11T19:33:46.940Z,-0.18
2023-03-11T19:39:48.869Z,-0.15
2023-03-11T19:45:50.846Z,0.03
2023-03-11T19:51:54.696Z,0.02
2023-03-11T19:57:56.790Z,-0.01
2023-03-11T20:03:59.831Z,-0.11
2023-03-11T20:10:01.735Z,-0.11
2023-03-11T20:16:09.899Z,-0.21
2023-03-11T20:22:11.885Z,-0.25
2023-03-11T20:28:13.956Z,-0.45
2023-03-11T20:34:16.056Z,-0.45
2023-03-11T20:40:19.123Z,-0.63
2023-03-11T20:46:21.350Z,-0.55
2023-03-11T20:52:23.383Z,-0.72
2023-03-11T20:58:25.671Z,-0.78
2023-03-11T21:04:27.695Z,-0.76
2023-03-11T21:10:30.841Z,-0.78
2023-03-11T21:16:33.315Z,-0.72
2023-03-11T21:22:35.295Z,-0.57
2023-03-11T21:28:39.898Z,-0.52
2023-03-11T21:34:41.856Z,-0.60
2023-03-11T21:40:43.866Z,-0.66
2023-03-11T21:46:45.983Z,-0.59
2023-03-11T21:52:48.001Z,-0.65
2023-03-11T21:58:50.024Z,-0.71
2023-03-11T22:04:52.122Z,-0.84
2023-03-11T22:10:54.781Z,-0.89
2023-03-11T22:16:56.860Z,-0.99
2023-03-11T22:22:59.356Z,-0.97
2023-03-11T22:29:03.791Z,-1.07
2023-03-11T22:35:06.406Z,-1.13
2023-03-11T22:41:08.434Z,-1.29
2023-03-11T22:47:10.324Z,-1.41
2023-03-11T22:53:13.614Z,-1.38
2023-03-11T22:59:15.543Z,-1.44
2023-03-11T23:05:17.579Z,-1.47
2023-03-11T23:11:21.283Z,-1.43
2023-03-11T23:17:23.180Z,-1.43
2023-03-11T23:23:25.192Z,-1.47
2023-03-11T23:29:27.091Z,-1.47
2023-03-11T23:35:29.123Z,-1.53
2023-03-11T23:41:31.093Z,-1.70
2023-03-11T23:47:33.012Z,-1.72
2023-03-11T23:53:36.118Z,-1.78
2023-03-11T23:59:38.031Z,-1.97
